Time;durP1;ratioP1;P1;durP2;ratioP2;P2;SDS_P1;SDS_P2;PMS_P1;PMS_P2;Temp;Humidity;BMP_temperature;BMP_pressure;BME280_temperature;BME280_humidity;BME280_pressure;Samples;Min_cycle;Max_cycle;Signal;HPM_P1;HPM_P2
2023/12/16 00:02:12;;;;;;;0.13;0.13;;;7.70;99.90;;;;;;5030495;28;20041;-72
2023/12/16 00:04:40;;;;;;;0.20;0.20;;;7.60;99.90;;;;;;5038964;28;20483;-72
2023/12/16 00:07:06;;;;;;;0.10;0.10;;;7.60;99.90;;;;;;5043100;28;20396;-72
2023/12/16 00:09:31;;;;;;;0.10;0.10;;;7.60;99.90;;;;;;5029585;28;20045;-71
2023/12/16 00:11:57;;;;;;;0.20;0.20;;;7.60;99.90;;;;;;5028643;28;20045;-72
2023/12/16 00:14:23;;;;;;;0.20;0.20;;;7.60;99.90;;;;;;5032696;28;20409;-71
2023/12/16 00:16:48;;;;;;;0.20;0.20;;;7.70;99.90;;;;;;5038668;28;20124;-72
2023/12/16 00:19:14;;;;;;;0.20;0.20;;;7.60;99.90;;;;;;5028622;28;20058;-72
2023/12/16 00:21:40;;;;;;;0.20;0.20;;;7.60;99.90;;;;;;5027570;28;20046;-72
2023/12/16 00:24:09;;;;;;;0.20;0.20;;;7.50;99.90;;;;;;5034525;28;20396;-72
2023/12/16 00:26:35;;;;;;;0.20;0.20;;;7.50;99.90;;;;;;5036295;28;20048;-72
2023/12/16 00:29:01;;;;;;;0.20;0.20;;;7.50;99.90;;;;;;5036838;28;20489;-72
2023/12/16 00:31:27;;;;;;;0.20;0.20;;;7.40;99.90;;;;;;5038303;28;20148;-71
2023/12/16 00:33:53;;;;;;;0.10;0.10;;;7.40;99.90;;;;;;5041805;28;20083;-72
2023/12/16 00:36:19;;;;;;;0.20;0.20;;;7.40;99.90;;;;;;5043313;28;20041;-72
2023/12/16 00:38:44;;;;;;;0.20;0.20;;;7.40;99.90;;;;;;5042777;28;20056;-72
2023/12/16 00:41:10;;;;;;;0.20;0.20;;;7.30;99.90;;;;;;5026834;28;20072;-72
2023/12/16 00:43:36;;;;;;;0.20;0.20;;;7.30;99.90;;;;;;5041808;28;20045;-72
2023/12/16 00:46:01;;;;;;;0.20;0.20;;;7.30;99.90;;;;;;5038622;28;20072;-72
2023/12/16 00:48:27;;;;;;;0.20;0.20;;;7.30;99.90;;;;;;5041502;28;20039;-72
2023/12/16 00:50:54;;;;;;;0.20;0.20;;;7.30;99.90;;;;;;5041564;28;20048;-72
2023/12/16 00:53:20;;;;;;;0.20;0.20;;;7.20;99.90;;;;;;5041557;28;20124;-72
2023/12/16 00:55:45;;;;;;;0.20;0.20;;;7.30;99.90;;;;;;5041325;28;20469;-72
2023/12/16 00:58:11;;;;;;;0.20;0.20;;;7.30;99.90;;;;;;5038868;28;20044;-71
2023/12/16 01:00:37;;;;;;;0.10;0.10;;;7.20;99.90;;;;;;5049815;28;20049;-72
2023/12/16 01:03:03;;;;;;;0.10;0.10;;;7.10;99.90;;;;;;5047023;28;20041;-72
2023/12/16 01:05:29;;;;;;;0.20;0.20;;;7.10;99.90;;;;;;5049848;28;20037;-71
2023/12/16 01:07:54;;;;;;;0.20;0.20;;;7.10;99.90;;;;;;5045672;28;20056;-72
2023/12/16 01:10:20;;;;;;;0.10;0.10;;;7.10;99.90;;;;;;5033367;28;20056;-72
2023/12/16 01:12:46;;;;;;;0.15;0.15;;;7.10;99.90;;;;;;5034610;28;20036;-72
2023/12/16 01:15:11;;;;;;;0.20;0.20;;;7.00;99.90;;;;;;5039967;28;20124;-72
2023/12/16 01:17:37;;;;;;;0.20;0.20;;;7.00;99.90;;;;;;5043669;28;20041;-72
2023/12/16 01:20:03;;;;;;;0.20;0.20;;;7.10;99.90;;;;;;5031753;28;20111;-72
2023/12/16 01:22:29;;;;;;;0.20;0.20;;;7.00;99.90;;;;;;5031974;28;20056;-72
2023/12/16 01:24:55;;;;;;;0.20;0.20;;;7.00;99.90;;;;;;5033006;28;20045;-72
2023/12/16 01:27:21;;;;;;;0.10;0.10;;;6.90;99.90;;;;;;5031813;28;20076;-72
2023/12/16 01:29:46;;;;;;;0.20;0.20;;;7.00;99.90;;;;;;5031801;28;20049;-72
2023/12/16 01:32:12;;;;;;;0.10;0.10;;;7.00;99.90;;;;;;5038308;28;20629;-72
2023/12/16 01:34:38;;;;;;;0.20;0.20;;;7.00;99.90;;;;;;5044663;28;20136;-72
2023/12/16 01:37:04;;;;;;;0.10;0.10;;;6.90;99.90;;;;;;5042874;28;20515;-72
2023/12/16 01:39:29;;;;;;;0.20;0.20;;;7.00;99.90;;;;;;5030859;28;20045;-71
2023/12/16 01:41:55;;;;;;;0.15;0.15;;;6.90;99.90;;;;;;5030476;28;20780;-71
2023/12/16 01:44:20;;;;;;;0.20;0.20;;;6.90;99.90;;;;;;5044203;28;20385;-71
2023/12/16 01:46:47;;;;;;;0.20;0.20;;;7.00;99.90;;;;;;5034317;28;20037;-72
2023/12/16 01:49:12;;;;;;;0.20;0.20;;;7.20;99.90;;;;;;5035510;28;20041;-71
2023/12/16 01:51:38;;;;;;;0.10;0.10;;;7.10;99.90;;;;;;5040375;28;20057;-71
2023/12/16 01:54:06;;;;;;;0.20;0.20;;;7.00;99.90;;;;;;5041354;28;20706;-71
2023/12/16 01:56:33;;;;;;;0.20;0.20;;;6.90;99.90;;;;;;5045619;28;20108;-71
2023/12/16 01:58:59;;;;;;;0.20;0.20;;;6.90;99.90;;;;;;5045179;28;20079;-72
2023/12/16 02:01:24;;;;;;;0.20;0.20;;;6.90;99.90;;;;;;5044132;28;20037;-71
2023/12/16 02:03:50;;;;;;;0.10;0.10;;;6.90;99.90;;;;;;5031789;28;20152;-71
2023/12/16 02:06:17;;;;;;;0.20;0.20;;;6.90;99.90;;;;;;5041782;28;20191;-72
2023/12/16 02:08:43;;;;;;;0.20;0.20;;;6.90;99.90;;;;;;5033241;28;20377;-71
2023/12/16 02:11:10;;;;;;;0.20;0.20;;;6.90;99.90;;;;;;5049029;28;20083;-71
2023/12/16 02:13:41;;;;;;;0.10;0.10;;;6.90;99.90;;;;;;5042563;28;20068;-71
2023/12/16 02:16:07;;;;;;;0.20;0.20;;;6.90;99.90;;;;;;5030478;28;20056;-71
2023/12/16 02:18:32;;;;;;;0.10;0.10;;;6.80;99.90;;;;;;5045779;28;20087;-71
2023/12/16 02:20:58;;;;;;;0.20;0.20;;;6.80;99.90;;;;;;5044513;28;20485;-71
2023/12/16 02:23:24;;;;;;;0.20;0.20;;;6.80;99.90;;;;;;5034432;28;20058;-71
2023/12/16 02:25:49;;;;;;;0.20;0.20;;;6.90;99.90;;;;;;5030301;28;20475;-71
2023/12/16 02:28:15;;;;;;;0.20;0.20;;;6.80;99.90;;;;;;5050161;28;20675;-71
2023/12/16 02:30:41;;;;;;;0.10;0.10;;;6.80;99.90;;;;;;5039308;28;20057;-71
2023/12/16 02:33:07;;;;;;;0.13;0.13;;;7.10;99.90;;;;;;5037932;28;20037;-72
2023/12/16 02:35:33;;;;;;;0.20;0.20;;;6.70;99.90;;;;;;5041895;28;20053;-71
2023/12/16 02:37:59;;;;;;;0.20;0.20;;;6.80;99.90;;;;;;5035307;28;20049;-71
2023/12/16 02:40:25;;;;;;;0.20;0.20;;;6.70;99.90;;;;;;5036305;28;20049;-71
2023/12/16 02:42:50;;;;;;;0.20;0.20;;;6.70;99.90;;;;;;5031094;28;20095;-71
2023/12/16 02:45:17;;;;;;;0.20;0.20;;;6.70;99.90;;;;;;5039074;28;20044;-71
2023/12/16 02:47:43;;;;;;;0.17;0.17;;;6.70;99.90;;;;;;5035676;28;20045;-71
2023/12/16 02:50:09;;;;;;;0.20;0.20;;;6.90;99.90;;;;;;5031417;28;20077;-71
2023/12/16 02:52:34;;;;;;;0.20;0.20;;;6.70;99.90;;;;;;5036544;28;20099;-71
2023/12/16 02:55:00;;;;;;;0.15;0.15;;;6.60;99.90;;;;;;5035980;28;20045;-71
2023/12/16 02:57:26;;;;;;;0.10;0.10;;;6.70;99.90;;;;;;5031736;28;20041;-71
2023/12/16 02:59:52;;;;;;;0.10;0.10;;;6.70;99.90;;;;;;5058813;28;20140;-71
2023/12/16 03:02:17;;;;;;;0.20;0.20;;;6.70;99.90;;;;;;5031810;28;20104;-71
2023/12/16 03:04:44;;;;;;;0.20;0.20;;;6.60;99.90;;;;;;5042209;28;20044;-71
2023/12/16 03:07:10;;;;;;;0.20;0.20;;;6.60;99.90;;;;;;5034988;28;20048;-72
2023/12/16 03:09:36;;;;;;;0.20;0.20;;;6.60;99.90;;;;;;5041388;28;20045;-72
2023/12/16 03:12:01;;;;;;;0.10;0.10;;;6.60;99.90;;;;;;5029850;28;20057;-71
2023/12/16 03:14:27;;;;;;;0.20;0.20;;;6.60;99.90;;;;;;5044170;28;20057;-72
2023/12/16 03:16:53;;;;;;;0.20;0.20;;;6.60;99.90;;;;;;5036396;28;20500;-72
2023/12/16 03:19:19;;;;;;;0.20;0.20;;;6.60;99.90;;;;;;5038037;28;20049;-71
2023/12/16 03:21:44;;;;;;;0.20;0.20;;;6.80;99.90;;;;;;5035277;28;20045;-72
2023/12/16 03:24:10;;;;;;;0.20;0.20;;;6.70;99.90;;;;;;5046750;28;20393;-72
2023/12/16 03:26:36;;;;;;;0.20;0.20;;;6.60;99.90;;;;;;5039810;28;20120;-72
2023/12/16 03:29:02;;;;;;;0.20;0.20;;;6.60;99.90;;;;;;5041723;28;20114;-72
2023/12/16 03:31:27;;;;;;;0.20;0.20;;;6.60;99.90;;;;;;5037433;28;20469;-72
2023/12/16 03:33:53;;;;;;;0.20;0.20;;;6.60;99.90;;;;;;5039004;28;20037;-72
2023/12/16 03:36:19;;;;;;;0.13;0.13;;;6.50;99.90;;;;;;5036268;28;20045;-72
2023/12/16 03:38:45;;;;;;;0.20;0.20;;;6.50;99.90;;;;;;5028269;28;20088;-72
2023/12/16 03:41:12;;;;;;;0.20;0.20;;;6.60;99.90;;;;;;5041788;28;20480;-72
2023/12/16 03:43:38;;;;;;;0.20;0.20;;;6.50;99.90;;;;;;5033374;28;20127;-72
2023/12/16 03:46:04;;;;;;;0.20;0.20;;;6.50;99.90;;;;;;5041536;28;20081;-72
2023/12/16 03:48:30;;;;;;;0.20;0.20;;;6.50;99.90;;;;;;5048170;28;20041;-71
2023/12/16 03:50:55;;;;;;;0.20;0.20;;;6.50;99.90;;;;;;5038588;28;20158;-72
2023/12/16 03:53:21;;;;;;;0.20;0.20;;;6.50;99.90;;;;;;5031796;28;20065;-72
2023/12/16 03:55:46;;;;;;;0.20;0.20;;;6.50;99.90;;;;;;5038213;28;20405;-72
2023/12/16 03:58:12;;;;;;;0.20;0.20;;;6.40;99.90;;;;;;5030076;28;20504;-72
2023/12/16 04:00:38;;;;;;;0.20;0.20;;;6.50;99.90;;;;;;5036569;28;20129;-72
2023/12/16 04:03:03;;;;;;;0.20;0.20;;;6.40;99.90;;;;;;5028939;28;20037;-72
2023/12/16 04:05:29;;;;;;;0.10;0.10;;;6.50;99.90;;;;;;5028554;28;20432;-71
2023/12/16 04:07:55;;;;;;;0.20;0.20;;;6.40;99.90;;;;;;5038987;28;20488;-72
2023/12/16 04:10:20;;;;;;;0.20;0.20;;;6.40;99.90;;;;;;5032972;28;20060;-72
2023/12/16 04:12:46;;;;;;;0.20;0.20;;;6.40;99.90;;;;;;5029891;28;20045;-72
2023/12/16 04:15:12;;;;;;;0.20;0.20;;;6.40;99.90;;;;;;5027108;28;20061;-72
2023/12/16 04:17:38;;;;;;;0.20;0.20;;;6.40;99.90;;;;;;5036797;28;20046;-72
2023/12/16 04:20:04;;;;;;;0.20;0.20;;;6.30;99.90;;;;;;5033285;28;20049;-72
2023/12/16 04:22:30;;;;;;;0.20;0.20;;;6.30;99.90;;;;;;5049452;28;20049;-72
2023/12/16 04:25:00;;;;;;;0.20;0.20;;;6.30;99.90;;;;;;5030398;28;20049;-72
2023/12/16 04:27:27;;;;;;;0.20;0.20;;;6.30;99.90;;;;;;5045988;28;20091;-72
2023/12/16 04:29:53;;;;;;;0.20;0.20;;;6.30;99.90;;;;;;5039855;28;20050;-72
2023/12/16 04:32:18;;;;;;;0.20;0.20;;;6.30;99.90;;;;;;5042394;28;20404;-72
2023/12/16 04:34:44;;;;;;;0.20;0.20;;;6.30;99.90;;;;;;5032721;28;20045;-71
2023/12/16 04:37:10;;;;;;;0.20;0.20;;;6.30;99.90;;;;;;5031749;28;20045;-72
2023/12/16 04:39:37;;;;;;;0.20;0.20;;;6.40;99.90;;;;;;5046659;28;20049;-72
2023/12/16 04:42:03;;;;;;;0.10;0.10;;;6.30;99.90;;;;;;5036057;28;20083;-71
2023/12/16 04:44:29;;;;;;;0.20;0.20;;;6.30;99.90;;;;;;5045865;28;20519;-72
2023/12/16 04:46:54;;;;;;;0.20;0.20;;;6.50;99.90;;;;;;5039581;28;20160;-72
2023/12/16 04:49:20;;;;;;;0.20;0.20;;;6.30;99.90;;;;;;5033419;28;20038;-72
2023/12/16 04:51:46;;;;;;;0.20;0.20;;;6.30;99.90;;;;;;5031788;28;20046;-71
2023/12/16 04:54:11;;;;;;;0.20;0.20;;;6.30;99.90;;;;;;5034793;28;20100;-72
2023/12/16 04:56:37;;;;;;;0.20;0.20;;;6.30;99.90;;;;;;5047725;28;20045;-72
2023/12/16 04:59:03;;;;;;;0.20;0.20;;;6.30;99.90;;;;;;5032269;28;20064;-72
2023/12/16 05:01:29;;;;;;;0.10;0.10;;;6.30;99.90;;;;;;5041029;28;20430;-71
2023/12/16 05:03:55;;;;;;;0.20;0.20;;;6.30;99.90;;;;;;5028661;28;20052;-71
2023/12/16 05:06:21;;;;;;;0.20;0.20;;;6.40;99.90;;;;;;5038765;28;20127;-71
2023/12/16 05:08:46;;;;;;;0.20;0.20;;;6.80;99.90;;;;;;5045828;28;20497;-72
2023/12/16 05:11:12;;;;;;;0.20;0.20;;;6.30;99.90;;;;;;5036434;28;20054;-72
2023/12/16 05:13:38;;;;;;;0.20;0.20;;;6.30;99.90;;;;;;5047383;28;20048;-71
2023/12/16 05:16:04;;;;;;;0.20;0.20;;;6.40;99.90;;;;;;5041723;28;20029;-72
2023/12/16 05:18:30;;;;;;;0.20;0.20;;;6.30;99.90;;;;;;5050866;28;20045;-72
2023/12/16 05:20:55;;;;;;;0.20;0.20;;;6.50;99.90;;;;;;5050023;28;20492;-72
2023/12/16 05:23:21;;;;;;;0.10;0.10;;;6.30;99.90;;;;;;5052952;28;20396;-72
2023/12/16 05:25:46;;;;;;;0.20;0.20;;;6.30;99.90;;;;;;5048214;28;20041;-72
2023/12/16 05:28:12;;;;;;;0.20;0.20;;;6.40;99.90;;;;;;5052158;28;20045;-72
2023/12/16 05:30:38;;;;;;;0.20;0.20;;;6.40;99.90;;;;;;5046673;28;20056;-72
2023/12/16 05:33:03;;;;;;;0.10;0.10;;;6.50;99.90;;;;;;5051412;28;20059;-72
2023/12/16 05:35:29;;;;;;;0.20;0.20;;;6.40;99.90;;;;;;5051081;28;20045;-72
2023/12/16 05:37:55;;;;;;;0.20;0.20;;;6.40;99.90;;;;;;5040649;28;20408;-72
2023/12/16 05:40:20;;;;;;;0.20;0.20;;;6.40;99.90;;;;;;5039706;28;20071;-72
2023/12/16 05:42:46;;;;;;;0.20;0.20;;;6.50;99.90;;;;;;5041885;28;20053;-72
2023/12/16 05:45:13;;;;;;;0.20;0.20;;;6.70;99.90;;;;;;5049630;28;20045;-71
2023/12/16 05:47:38;;;;;;;0.20;0.20;;;6.80;99.90;;;;;;5035248;28;20061;-72
2023/12/16 05:50:05;;;;;;;0.20;0.20;;;6.50;99.90;;;;;;5031988;28;20485;-72
2023/12/16 05:52:31;;;;;;;0.20;0.20;;;6.60;99.90;;;;;;5043047;28;20144;-72
2023/12/16 05:54:57;;;;;;;0.20;0.20;;;6.60;99.90;;;;;;5028147;28;20461;-72
2023/12/16 05:57:23;;;;;;;0.10;0.10;;;6.90;99.90;;;;;;5041650;28;20052;-72
2023/12/16 05:59:48;;;;;;;0.20;0.20;;;6.80;99.90;;;;;;5046151;28;20045;-72
2023/12/16 06:02:14;;;;;;;0.10;0.10;;;6.80;99.90;;;;;;5027976;28;20569;-71
2023/12/16 06:04:40;;;;;;;0.10;0.10;;;7.00;99.90;;;;;;5029721;28;20053;-71
2023/12/16 06:07:05;;;;;;;0.20;0.20;;;7.00;99.90;;;;;;5030834;28;20049;-72
2023/12/16 06:09:31;;;;;;;0.20;0.20;;;6.90;99.90;;;;;;5030323;28;20075;-71
2023/12/16 06:11:57;;;;;;;0.20;0.20;;;7.10;99.90;;;;;;5030591;28;20046;-72
2023/12/16 06:14:23;;;;;;;0.20;0.20;;;7.00;99.90;;;;;;5042536;28;20055;-72
2023/12/16 06:16:48;;;;;;;0.20;0.20;;;7.00;99.90;;;;;;5047125;28;20048;-72
2023/12/16 06:19:15;;;;;;;0.20;0.20;;;7.10;99.90;;;;;;5038037;28;20049;-72
2023/12/16 06:21:40;;;;;;;0.20;0.20;;;7.10;99.90;;;;;;5031094;28;20556;-72
2023/12/16 06:24:08;;;;;;;0.13;0.13;;;7.10;99.90;;;;;;5029968;28;20139;-72
2023/12/16 06:26:34;;;;;;;0.10;0.10;;;7.10;99.90;;;;;;5047614;28;20049;-72
2023/12/16 06:29:00;;;;;;;0.10;0.10;;;7.20;99.90;;;;;;5048288;28;20052;-72
2023/12/16 06:31:25;;;;;;;0.10;0.10;;;7.20;99.90;;;;;;5038277;28;20037;-72
2023/12/16 06:33:51;;;;;;;0.20;0.20;;;7.20;99.90;;;;;;5031920;28;20113;-71
2023/12/16 06:36:16;;;;;;;0.10;0.10;;;7.20;99.90;;;;;;5031679;28;20053;-72
2023/12/16 06:38:42;;;;;;;0.15;0.15;;;7.20;99.90;;;;;;5032894;28;20536;-72
2023/12/16 06:41:08;;;;;;;0.20;0.20;;;7.20;99.90;;;;;;5030808;28;20990;-72
2023/12/16 06:43:33;;;;;;;0.20;0.20;;;7.20;99.90;;;;;;5036048;28;20045;-72
2023/12/16 06:45:59;;;;;;;0.13;0.13;;;7.20;99.90;;;;;;5037029;28;20488;-72
2023/12/16 06:48:25;;;;;;;0.20;0.20;;;7.20;99.90;;;;;;5041742;28;20041;-72
2023/12/16 06:50:50;;;;;;;0.20;0.20;;;7.30;99.90;;;;;;5041989;28;20110;-72
2023/12/16 06:53:17;;;;;;;0.10;0.10;;;7.30;99.90;;;;;;5042117;28;20072;-72
2023/12/16 06:55:42;;;;;;;0.20;0.20;;;7.30;99.90;;;;;;5048250;28;20060;-72
2023/12/16 06:58:08;;;;;;;0.20;0.20;;;7.30;99.90;;;;;;5037127;28;20049;-72
2023/12/16 07:00:34;;;;;;;0.20;0.20;;;7.30;99.90;;;;;;5049189;28;20045;-72
2023/12/16 07:03:00;;;;;;;0.20;0.20;;;7.30;99.90;;;;;;5032011;28;20060;-72
2023/12/16 07:05:27;;;;;;;0.20;0.20;;;7.30;99.90;;;;;;5035174;28;20037;-72
2023/12/16 07:07:53;;;;;;;0.20;0.20;;;7.40;99.90;;;;;;5037987;28;20385;-72
2023/12/16 07:10:19;;;;;;;0.10;0.10;;;7.40;99.90;;;;;;5031293;28;20052;-72
2023/12/16 07:12:45;;;;;;;0.13;0.13;;;7.30;99.90;;;;;;5040854;28;20049;-71
2023/12/16 07:15:11;;;;;;;0.20;0.20;;;7.40;99.90;;;;;;5031603;28;20041;-71
2023/12/16 07:17:36;;;;;;;0.20;0.20;;;7.40;99.90;;;;;;5041586;28;20095;-72
2023/12/16 07:20:02;;;;;;;0.10;0.10;;;7.40;99.90;;;;;;5036459;28;20370;-72
2023/12/16 07:22:29;;;;;;;0.10;0.10;;;7.40;99.90;;;;;;5031536;28;20056;-72
2023/12/16 07:24:56;;;;;;;0.20;0.20;;;7.50;99.90;;;;;;5028990;28;20049;-72
2023/12/16 07:27:22;;;;;;;0.20;0.20;;;7.40;99.90;;;;;;5043576;28;20473;-72
2023/12/16 07:29:47;;;;;;;0.20;0.20;;;7.40;99.90;;;;;;5031641;28;20049;-72
2023/12/16 07:32:13;;;;;;;0.20;0.20;;;7.60;99.90;;;;;;5030143;28;20049;-71
2023/12/16 07:34:40;;;;;;;0.10;0.10;;;7.70;99.90;;;;;;5046087;28;20053;-72
2023/12/16 07:37:06;;;;;;;0.10;0.10;;;7.50;99.90;;;;;;5037494;28;20052;-72
2023/12/16 07:39:32;;;;;;;0.10;0.10;;;7.50;99.90;;;;;;5032988;28;20404;-73
2023/12/16 07:41:57;;;;;;;0.20;0.20;;;7.50;99.90;;;;;;5031921;28;20049;-72
2023/12/16 07:44:23;;;;;;;0.15;0.15;;;7.50;99.90;;;;;;5043466;28;20029;-72
2023/12/16 07:46:49;;;;;;;0.10;0.10;;;7.70;99.90;;;;;;5032071;28;20563;-73
2023/12/16 07:49:14;;;;;;;0.10;0.10;;;7.60;99.90;;;;;;5031635;28;20083;-72
2023/12/16 07:51:42;;;;;;;0.10;0.10;;;7.60;99.90;;;;;;5046717;28;20094;-71
2023/12/16 07:54:07;;;;;;;0.10;0.10;;;7.60;99.90;;;;;;5045319;28;20040;-71
2023/12/16 07:56:33;;;;;;;0.20;0.20;;;7.90;99.90;;;;;;5046202;28;20675;-71
2023/12/16 07:58:59;;;;;;;0.10;0.10;;;7.80;99.90;;;;;;5036115;28;20053;-71
2023/12/16 08:01:24;;;;;;;0.20;0.20;;;7.60;99.90;;;;;;5030166;28;20049;-71
2023/12/16 08:03:50;;;;;;;0.10;0.10;;;7.60;99.90;;;;;;5028787;28;20045;-72
2023/12/16 08:06:17;;;;;;;0.15;0.15;;;7.60;99.90;;;;;;5037825;28;20049;-70
2023/12/16 08:08:45;;;;;;;0.20;0.20;;;7.70;99.90;;;;;;5048016;28;20389;-71
2023/12/16 08:11:10;;;;;;;0.20;0.20;;;7.60;99.90;;;;;;5032682;28;20057;-71
2023/12/16 08:13:37;;;;;;;0.20;0.20;;;7.70;99.90;;;;;;5028609;28;20527;-71
2023/12/16 08:16:08;;;;;;;0.10;0.10;;;7.70;99.90;;;;;;5034407;28;20048;-71
2023/12/16 08:18:34;;;;;;;0.10;0.10;;;7.70;99.90;;;;;;5040213;28;20053;-71
2023/12/16 08:21:00;;;;;;;0.20;0.20;;;7.70;99.90;;;;;;5039823;28;20704;-71
2023/12/16 08:23:25;;;;;;;0.73;0.57;;;7.70;99.90;;;;;;5039004;28;20120;-71
2023/12/16 08:25:51;;;;;;;0.20;0.20;;;7.80;99.90;;;;;;5034900;28;20136;-71
2023/12/16 08:28:17;;;;;;;0.15;0.15;;;7.80;99.90;;;;;;5038182;28;20080;-71
2023/12/16 08:30:44;;;;;;;0.17;0.17;;;7.80;99.90;;;;;;5033940;28;20476;-71
2023/12/16 08:33:09;;;;;;;0.20;0.20;;;7.80;99.90;;;;;;5037114;28;20055;-71
2023/12/16 08:35:36;;;;;;;0.20;0.20;;;8.10;99.90;;;;;;5045909;28;20045;-71
2023/12/16 08:38:02;;;;;;;0.20;0.20;;;7.80;99.90;;;;;;5030351;28;20561;-71
2023/12/16 08:40:28;;;;;;;0.20;0.20;;;7.90;99.90;;;;;;5030627;28;20055;-71
2023/12/16 08:42:54;;;;;;;0.10;0.10;;;7.80;99.90;;;;;;5034439;28;20124;-71
2023/12/16 08:45:20;;;;;;;0.10;0.10;;;7.90;99.90;;;;;;5045387;28;20385;-71
2023/12/16 08:47:45;;;;;;;0.20;0.20;;;7.90;99.90;;;;;;5029868;28;20404;-71
2023/12/16 08:50:11;;;;;;;0.20;0.20;;;8.00;99.90;;;;;;5047699;28;20049;-71
2023/12/16 08:52:37;;;;;;;0.10;0.10;;;7.90;99.90;;;;;;5038823;28;20056;-71
2023/12/16 08:55:04;;;;;;;0.20;0.20;;;8.00;99.90;;;;;;5029366;28;20046;-71
2023/12/16 08:57:30;;;;;;;0.10;0.10;;;8.00;99.90;;;;;;5048679;28;20535;-71
2023/12/16 08:59:55;;;;;;;0.20;0.20;;;7.90;99.90;;;;;;5031861;28;20049;-71
2023/12/16 09:02:22;;;;;;;0.10;0.10;;;8.00;99.90;;;;;;5032679;28;20049;-71
2023/12/16 09:04:48;;;;;;;0.20;0.20;;;8.00;99.90;;;;;;5040537;28;20041;-71
2023/12/16 09:07:13;;;;;;;0.20;0.20;;;8.00;99.90;;;;;;5044148;28;20136;-71
2023/12/16 09:09:39;;;;;;;0.20;0.20;;;8.10;99.90;;;;;;5030948;28;20124;-71
2023/12/16 09:12:09;;;;;;;0.10;0.10;;;8.00;99.90;;;;;;5043755;28;20496;-72
2023/12/16 09:14:35;;;;;;;0.10;0.10;;;8.00;99.90;;;;;;5029285;28;20452;-74
2023/12/16 09:17:00;;;;;;;0.20;0.20;;;8.00;99.90;;;;;;5028991;28;20049;-71
2023/12/16 09:19:26;;;;;;;0.20;0.20;;;8.00;99.90;;;;;;5043041;28;20384;-71
2023/12/16 09:21:52;;;;;;;0.10;0.10;;;8.00;99.90;;;;;;5040027;28;20049;-71
2023/12/16 09:24:18;;;;;;;0.20;0.20;;;8.00;99.90;;;;;;5037648;28;20526;-71
2023/12/16 09:26:44;;;;;;;0.10;0.10;;;8.00;99.90;;;;;;5036658;28;20041;-70
2023/12/16 09:29:11;;;;;;;0.10;0.10;;;8.10;99.90;;;;;;5034550;28;20045;-71
2023/12/16 09:31:37;;;;;;;0.10;0.10;;;8.00;99.90;;;;;;5036389;28;20144;-71
2023/12/16 09:34:02;;;;;;;0.10;0.10;;;8.00;99.90;;;;;;5041740;28;20128;-70
2023/12/16 09:36:29;;;;;;;0.10;0.10;;;8.00;99.90;;;;;;5045540;28;20129;-71
2023/12/16 09:38:55;;;;;;;0.20;0.20;;;8.00;99.90;;;;;;5042929;28;20560;-71
2023/12/16 09:41:24;;;;;;;0.20;0.20;;;8.10;99.90;;;;;;5035791;28;20076;-71
2023/12/16 09:43:54;;;;;;;0.20;0.20;;;8.10;99.90;;;;;;5041628;28;20037;-71
2023/12/16 09:46:22;;;;;;;0.20;0.20;;;8.10;99.90;;;;;;5039809;28;20130;-71
2023/12/16 09:48:48;;;;;;;0.10;0.10;;;8.10;99.90;;;;;;5038484;28;20045;-71
2023/12/16 09:51:14;;;;;;;0.20;0.20;;;8.10;99.90;;;;;;5042949;28;20123;-71
2023/12/16 09:53:40;;;;;;;0.10;0.10;;;8.10;99.90;;;;;;5051110;28;20124;-70
2023/12/16 09:56:06;;;;;;;0.20;0.20;;;8.10;99.90;;;;;;5030659;28;20037;-71
2023/12/16 09:58:34;;;;;;;0.20;0.20;;;8.10;99.90;;;;;;5047505;28;20123;-71
2023/12/16 10:01:02;;;;;;;0.20;0.20;;;8.10;99.90;;;;;;5040816;28;20061;-71
2023/12/16 10:03:29;;;;;;;0.10;0.10;;;8.10;99.90;;;;;;5044498;28;20072;-71
2023/12/16 10:05:55;;;;;;;0.20;0.20;;;8.30;99.90;;;;;;5039842;28;20057;-71
2023/12/16 10:08:20;;;;;;;0.20;0.20;;;8.10;99.90;;;;;;5054105;28;20420;-71
2023/12/16 10:10:46;;;;;;;0.20;0.20;;;8.20;99.90;;;;;;5030895;28;20049;-71
2023/12/16 10:13:12;;;;;;;0.10;0.10;;;8.20;99.90;;;;;;5030438;28;20515;-71
2023/12/16 10:15:37;;;;;;;0.20;0.20;;;8.20;99.90;;;;;;5031123;28;20049;-71
2023/12/16 10:18:04;;;;;;;0.10;0.10;;;8.20;99.90;;;;;;5035308;28;20044;-71
2023/12/16 10:20:32;;;;;;;0.10;0.10;;;8.20;99.90;;;;;;5038515;28;20115;-70
2023/12/16 10:23:02;;;;;;;0.20;0.20;;;8.20;99.90;;;;;;5032496;28;20092;-71
2023/12/16 10:25:30;;;;;;;0.20;0.20;;;8.20;99.90;;;;;;5029513;28;20041;-71
2023/12/16 10:28:03;;;;;;;0.13;0.13;;;8.20;99.90;;;;;;5037849;28;20060;-71
2023/12/16 10:30:29;;;;;;;0.20;0.20;;;8.30;99.90;;;;;;5051093;28;20053;-71
2023/12/16 10:32:55;;;;;;;0.20;0.20;;;7.70;99.90;;;;;;5032413;28;20124;-71
2023/12/16 10:35:23;;;;;;;0.20;0.20;;;8.30;99.90;;;;;;5036752;28;20403;-71
2023/12/16 10:37:50;;;;;;;0.10;0.10;;;8.40;99.90;;;;;;5030857;28;20060;-71
2023/12/16 10:40:16;;;;;;;0.20;0.20;;;8.40;99.90;;;;;;5043722;28;20057;-71
2023/12/16 10:42:43;;;;;;;0.10;0.10;;;8.30;99.90;;;;;;5046380;28;20052;-71
2023/12/16 10:45:11;;;;;;;0.20;0.20;;;8.30;99.90;;;;;;5050264;28;20056;-71
2023/12/16 10:47:37;;;;;;;0.20;0.20;;;8.40;99.90;;;;;;5047417;28;20072;-71
2023/12/16 10:50:03;;;;;;;0.40;0.40;;;8.30;99.90;;;;;;5029934;28;20160;-71
2023/12/16 10:52:41;;;;;;;0.20;0.20;;;8.40;99.90;;;;;;5039688;28;20595;-71
2023/12/16 10:55:22;;;;;;;0.20;0.20;;;8.50;99.90;;;;;;5046602;28;20051;-78
2023/12/16 10:57:49;;;;;;;0.20;0.20;;;8.40;99.90;;;;;;5034779;28;20396;-79
2023/12/16 11:00:22;;;;;;;0.13;0.13;;;8.40;99.90;;;;;;5035751;28;20116;-78
2023/12/16 11:03:04;;;;;;;0.20;0.20;;;8.40;99.90;;;;;;5031614;28;20447;-80
2023/12/16 11:05:36;;;;;;;0.20;0.20;;;8.50;99.90;;;;;;5042907;28;20037;-80
2023/12/16 11:08:03;;;;;;;0.10;0.10;;;8.50;99.90;;;;;;5034080;28;20056;-77
2023/12/16 11:10:32;;;;;;;0.20;0.20;;;8.60;99.90;;;;;;5034094;28;20431;-72
2023/12/16 11:13:00;;;;;;;0.20;0.20;;;8.50;99.90;;;;;;5049715;28;20049;-72
2023/12/16 11:15:27;;;;;;;0.20;0.20;;;8.60;99.90;;;;;;5069455;28;20474;-72
2023/12/16 11:18:12;;;;;;;0.20;0.20;;;8.60;99.90;;;;;;5068712;28;21053;-72
2023/12/16 11:20:39;;;;;;;0.20;0.20;;;8.60;99.90;;;;;;5032926;28;20057;-72
2023/12/16 11:23:05;;;;;;;0.20;0.20;;;8.60;99.90;;;;;;5036670;28;20044;-72
2023/12/16 11:25:34;;;;;;;0.13;0.13;;;8.70;99.90;;;;;;5027639;28;20060;-71
2023/12/16 11:28:02;;;;;;;0.10;0.10;;;8.70;99.90;;;;;;5030839;28;20492;-72
2023/12/16 11:30:29;;;;;;;0.20;0.20;;;8.80;99.90;;;;;;5029762;28;20068;-72
2023/12/16 11:32:57;;;;;;;0.20;0.20;;;8.80;99.90;;;;;;5031414;28;20041;-71
2023/12/16 11:35:45;;;;;;;0.20;0.20;;;8.80;99.90;;;;;;5036703;28;20489;-72
2023/12/16 11:38:44;;;;;;;0.10;0.10;;;8.90;99.90;;;;;;5042057;28;20041;-72
2023/12/16 11:41:34;;;;;;;0.20;0.20;;;8.90;99.90;;;;;;5041901;28;20079;-72
2023/12/16 11:44:00;;;;;;;0.10;0.10;;;8.90;99.90;;;;;;5029041;28;20076;-72
2023/12/16 11:46:42;;;;;;;0.10;0.10;;;8.90;99.90;;;;;;5045448;28;20072;-72
2023/12/16 11:49:13;;;;;;;;;;;8.90;99.90;;;;;;5029691;28;20395;-72
2023/12/16 11:51:39;;;;;;;0.20;0.20;;;8.90;99.90;;;;;;5027483;28;20288;-72
2023/12/16 11:54:06;;;;;;;0.10;0.10;;;8.90;99.90;;;;;;5032256;28;20136;-72
2023/12/16 11:56:33;;;;;;;0.20;0.20;;;9.00;99.90;;;;;;5031890;28;20092;-72
2023/12/16 11:59:02;;;;;;;0.20;0.20;;;9.00;99.90;;;;;;5028205;28;20065;-72
2023/12/16 12:01:31;;;;;;;0.20;0.20;;;9.00;99.90;;;;;;5029932;28;20091;-72
2023/12/16 12:03:58;;;;;;;0.10;0.10;;;9.00;99.90;;;;;;5037689;28;20085;-72
2023/12/16 12:06:25;;;;;;;0.20;0.20;;;9.10;99.90;;;;;;5035395;28;20436;-72
2023/12/16 12:08:51;;;;;;;0.20;0.20;;;9.10;99.90;;;;;;5038036;28;20052;-72
2023/12/16 12:11:18;;;;;;;0.20;0.20;;;9.10;99.90;;;;;;5026963;28;20046;-72
2023/12/16 12:13:44;;;;;;;0.20;0.20;;;9.10;99.90;;;;;;5032162;28;20059;-72
2023/12/16 12:16:12;;;;;;;0.10;0.10;;;9.10;99.90;;;;;;5031412;28;20061;-72
2023/12/16 12:18:39;;;;;;;0.13;0.13;;;9.20;99.90;;;;;;5039918;28;20044;-71
2023/12/16 12:21:09;;;;;;;0.10;0.10;;;9.10;99.90;;;;;;5038140;28;20107;-72
2023/12/16 12:23:37;;;;;;;0.20;0.20;;;9.20;99.90;;;;;;5035600;28;20071;-72
2023/12/16 12:26:03;;;;;;;0.20;0.20;;;9.20;99.90;;;;;;5027202;28;20058;-72
2023/12/16 12:28:29;;;;;;;0.20;0.20;;;9.10;99.90;;;;;;5028905;28;20044;-72
2023/12/16 12:31:06;;;;;;;0.15;0.15;;;9.20;99.90;;;;;;5029033;28;20041;-72
2023/12/16 12:33:33;;;;;;;0.20;0.20;;;9.20;99.90;;;;;;5045460;28;20527;-72
2023/12/16 12:35:58;;;;;;;0.20;0.20;;;9.20;99.90;;;;;;5046734;28;20175;-72
2023/12/16 12:38:25;;;;;;;0.20;0.20;;;9.20;99.90;;;;;;5048493;28;20494;-72
2023/12/16 12:41:04;;;;;;;0.20;0.20;;;9.20;99.90;;;;;;5039519;28;20120;-72
2023/12/16 12:43:34;;;;;;;0.10;0.10;;;9.20;99.90;;;;;;5029299;28;20495;-72
2023/12/16 12:46:08;;;;;;;0.10;0.10;;;9.20;99.90;;;;;;5032423;28;20059;-72
2023/12/16 12:48:35;;;;;;;0.10;0.10;;;9.20;99.90;;;;;;5031045;28;20060;-72
2023/12/16 12:51:06;;;;;;;0.20;0.20;;;9.20;99.90;;;;;;5039410;28;20137;-72
2023/12/16 12:53:33;;;;;;;;;;;9.20;99.90;;;;;;5053102;28;20480;-72
2023/12/16 12:56:00;;;;;;;0.17;0.17;;;9.20;99.90;;;;;;5037974;28;19930;-72